< < Back
Terminal Aerodrome Forecast


Current Version              Previous Versions:   1  2  3  4  5  6  7  8  9  

Terminal Aerodrome Forecast

130
FTUS44 KBMX 252339
TAFANB
TAF
KANB 252339Z 2600/2624 08003KT P6SM FEW080
     FM261700 17005KT P6SM FEW100
     FM262300 35005KT P6SM SCT070 SCT100=

Latest METAR

508
SAUS70 KWBC 260800 RRH
MTRANB
METAR KANB 260753Z AUTO 00000KT 10SM CLR 20/17 A3004 RMK AO2 SLP163
T02000172


USA.gov is the U.S. government's official web portal to all federal, state and local government web resources and services.